Terminal Aerodrome Forecast
Issued by NWS

Home | Current Version | Previous Version | Text Only | Print | Product List | Glossary On
Versions: 1 2 3 4 5 6 7 8 9 10 11 12 13 14 15 16 17 18 19 20
380
FTUS41 KBGM 142344
TAFELM
TAF
KELM 142344Z 1500/1524 VRB06KT P6SM FEW250
     FM151100 16004KT P6SM SCT050 OVC090
      TEMPO 1513/1516 4SM -SN OVC040
     FM151600 18008KT 5SM -SN OVC040=

USA.gov is the U.S. government's official web portal to all federal, state and local government web resources and services.